createdAt,value
2018-03-16T00:01:06.987Z,63.57
2018-03-16T00:03:34.644Z,63.66
2018-03-16T00:06:02.400Z,63.32
2018-03-16T00:08:30.015Z,64.29
2018-03-16T00:10:57.610Z,64.28
2018-03-16T00:13:25.199Z,65.02
2018-03-16T00:15:52.809Z,64.73
2018-03-16T00:18:20.469Z,64.80
2018-03-16T00:20:48.063Z,64.92
2018-03-16T00:23:15.648Z,64.69
2018-03-16T00:25:43.297Z,64.83
2018-03-16T00:28:10.895Z,64.89
2018-03-16T00:30:38.515Z,65.12
2018-03-16T00:33:06.158Z,64.65
2018-03-16T00:35:33.744Z,65.16
2018-03-16T00:38:01.351Z,65.30
2018-03-16T00:40:29.722Z,65.73
2018-03-16T00:42:57.543Z,66.02
2018-03-16T00:45:25.188Z,65.78
2018-03-16T00:47:52.823Z,65.60
2018-03-16T00:50:21.455Z,65.61
2018-03-16T00:52:49.125Z,65.73
2018-03-16T00:55:16.765Z,66.11
2018-03-16T00:57:44.346Z,66.76
2018-03-16T01:00:11.991Z,66.47
2018-03-16T01:02:39.578Z,66.33
2018-03-16T01:05:07.174Z,66.34
2018-03-16T01:07:34.768Z,66.06
2018-03-16T01:10:02.359Z,65.17
2018-03-16T01:12:29.963Z,65.83
2018-03-16T01:14:57.694Z,66.19
2018-03-16T01:17:25.399Z,65.74
2018-03-16T01:19:53.011Z,66.21
2018-03-16T01:22:20.618Z,65.94
2018-03-16T01:24:48.278Z,66.33
2018-03-16T01:27:15.886Z,66.80
2018-03-16T01:29:43.504Z,66.82
2018-03-16T01:32:11.330Z,67.15
2018-03-16T01:34:38.923Z,67.26
2018-03-16T01:37:06.601Z,67.34
2018-03-16T01:39:34.239Z,67.58
2018-03-16T01:42:01.851Z,67.59
2018-03-16T01:44:29.443Z,67.36
2018-03-16T01:46:57.040Z,67.20
2018-03-16T01:49:25.508Z,65.70
2018-03-16T01:51:53.211Z,66.14
2018-03-16T01:54:20.949Z,66.28
2018-03-16T01:56:48.570Z,66.87
2018-03-16T01:59:16.180Z,67.04
2018-03-16T02:01:43.834Z,67.82
2018-03-16T02:04:11.487Z,67.33
2018-03-16T02:06:39.294Z,67.53
2018-03-16T02:09:06.926Z,67.35
2018-03-16T02:11:34.524Z,67.48
2018-03-16T02:14:02.240Z,67.94
2018-03-16T02:16:29.884Z,68.15
2018-03-16T02:18:57.599Z,67.68
2018-03-16T02:21:25.406Z,67.71
2018-03-16T02:23:53.204Z,67.99
2018-03-16T02:26:20.803Z,68.32
2018-03-16T02:28:48.391Z,68.56
2018-03-16T02:31:16.887Z,68.46
2018-03-16T02:33:44.523Z,68.69
2018-03-16T02:36:12.115Z,68.98
2018-03-16T02:38:39.735Z,68.87
2018-03-16T02:41:07.362Z,69.11
2018-03-16T02:43:34.990Z,69.39
2018-03-16T02:46:02.583Z,69.25
2018-03-16T02:48:30.187Z,68.75
2018-03-16T02:50:58.586Z,68.25
2018-03-16T02:53:26.175Z,68.51
2018-03-16T02:55:53.795Z,69.39
2018-03-16T02:58:21.427Z,68.92
2018-03-16T03:00:49.065Z,68.55
2018-03-16T03:03:17.696Z,68.71
2018-03-16T03:05:45.485Z,68.45
2018-03-16T03:08:13.210Z,68.88
2018-03-16T03:10:40.819Z,69.50
2018-03-16T03:13:08.444Z,69.79
2018-03-16T03:15:36.050Z,70.02
2018-03-16T03:18:03.659Z,70.29
2018-03-16T03:20:31.266Z,69.90
2018-03-16T03:22:58.883Z,69.59
2018-03-16T03:25:26.519Z,68.82
2018-03-16T03:27:54.191Z,68.98
2018-03-16T03:30:21.840Z,70.26
2018-03-16T03:32:49.443Z,69.67
2018-03-16T03:35:17.019Z,69.79
2018-03-16T03:37:44.684Z,69.43
2018-03-16T03:40:12.275Z,69.42
2018-03-16T03:42:39.901Z,69.66
2018-03-16T03:45:07.490Z,69.37
2018-03-16T03:47:35.090Z,68.98
2018-03-16T03:50:02.734Z,69.36
2018-03-16T03:52:30.330Z,70.50
2018-03-16T03:54:57.968Z,69.87
2018-03-16T03:57:25.586Z,69.95
2018-03-16T03:59:53.199Z,69.24
2018-03-16T04:02:20.790Z,69.37
2018-03-16T04:04:48.430Z,70.73
2018-03-16T04:07:16.063Z,70.72
2018-03-16T04:09:43.679Z,70.22
2018-03-16T04:12:11.262Z,70.25
2018-03-16T04:14:38.899Z,71.03
2018-03-16T04:17:06.518Z,70.08
2018-03-16T04:19:34.106Z,70.35
2018-03-16T04:22:01.778Z,70.41
2018-03-16T04:24:29.398Z,69.66
2018-03-16T04:26:56.983Z,69.61
2018-03-16T04:29:24.579Z,69.20
2018-03-16T04:31:52.222Z,69.71
2018-03-16T04:34:19.824Z,69.52
2018-03-16T04:36:47.427Z,68.73
2018-03-16T04:39:15.019Z,68.16
2018-03-16T04:41:42.630Z,67.71
2018-03-16T04:44:10.256Z,67.91
2018-03-16T04:46:37.895Z,68.01
2018-03-16T04:49:05.475Z,67.93
2018-03-16T04:51:33.171Z,67.63
2018-03-16T04:54:00.768Z,67.70
2018-03-16T04:56:28.356Z,67.09
2018-03-16T04:58:55.947Z,67.16
2018-03-16T05:01:23.564Z,72.05
2018-03-16T05:03:51.838Z,68.03
2018-03-16T05:06:19.464Z,66.91
2018-03-16T05:08:47.056Z,66.49
2018-03-16T05:11:14.715Z,66.55
2018-03-16T05:13:42.419Z,66.88
2018-03-16T05:16:10.094Z,66.91
2018-03-16T05:18:37.871Z,66.36
2018-03-16T05:21:05.478Z,65.73
2018-03-16T05:23:33.062Z,65.50
2018-03-16T05:26:00.692Z,65.04
2018-03-16T05:28:28.301Z,64.96
2018-03-16T05:30:55.919Z,65.69
2018-03-16T05:33:23.559Z,65.33
2018-03-16T05:35:51.152Z,65.97
2018-03-16T05:38:18.746Z,63.93
2018-03-16T05:40:46.344Z,63.08
2018-03-16T05:43:13.954Z,64.26
2018-03-16T05:45:41.687Z,62.44
2018-03-16T05:48:09.334Z,62.42
2018-03-16T05:50:36.944Z,63.49
2018-03-16T05:53:04.611Z,63.07
2018-03-16T05:55:32.223Z,63.02
2018-03-16T05:57:59.850Z,63.03
2018-03-16T06:00:27.479Z,61.65
2018-03-16T06:02:55.100Z,63.08
2018-03-16T06:05:22.726Z,63.66
2018-03-16T06:07:50.321Z,62.78
2018-03-16T06:10:17.951Z,61.84
2018-03-16T06:12:45.653Z,62.18
2018-03-16T06:15:13.313Z,62.06
2018-03-16T06:17:40.967Z,62.17
2018-03-16T06:20:08.674Z,60.17
2018-03-16T06:22:36.279Z,61.23
2018-03-16T06:25:03.919Z,61.89
2018-03-16T06:27:31.555Z,61.82
2018-03-16T06:29:59.145Z,62.48
2018-03-16T06:32:26.737Z,62.13
2018-03-16T06:34:54.378Z,62.69
2018-03-16T06:37:21.967Z,62.31
2018-03-16T06:39:49.599Z,62.45
2018-03-16T06:42:17.189Z,62.44
2018-03-16T06:44:44.969Z,63.02
2018-03-16T06:47:12.547Z,62.18
2018-03-16T06:49:40.138Z,61.82
2018-03-16T06:52:07.762Z,62.25
2018-03-16T06:54:35.467Z,63.12
2018-03-16T06:57:03.063Z,62.67
2018-03-16T06:59:30.681Z,61.88
2018-03-16T07:01:58.275Z,62.28
2018-03-16T07:04:25.910Z,61.94
2018-03-16T07:06:53.538Z,62.36
2018-03-16T07:09:21.147Z,62.42
2018-03-16T07:11:49.632Z,60.68
2018-03-16T07:14:17.215Z,60.91
2018-03-16T07:16:44.954Z,60.43
2018-03-16T07:19:12.535Z,59.74
2018-03-16T07:21:40.135Z,59.80
2018-03-16T07:24:07.855Z,59.13
2018-03-16T07:26:35.463Z,59.28
2018-03-16T07:29:03.223Z,58.82
2018-03-16T07:31:30.858Z,59.94
2018-03-16T07:33:58.467Z,59.55
2018-03-16T07:36:26.104Z,60.32
2018-03-16T07:38:53.719Z,60.01
2018-03-16T07:41:21.319Z,59.00
2018-03-16T07:43:48.977Z,58.47
2018-03-16T07:46:16.688Z,58.60
2018-03-16T07:48:44.286Z,58.52
2018-03-16T07:51:11.937Z,58.56
2018-03-16T07:53:39.571Z,58.61
2018-03-16T07:56:07.203Z,58.79
2018-03-16T07:58:34.795Z,59.15
2018-03-16T08:01:02.543Z,58.31
2018-03-16T08:03:30.163Z,58.06
2018-03-16T08:05:57.974Z,56.62
2018-03-16T08:08:25.696Z,56.79
2018-03-16T08:10:53.314Z,57.74
2018-03-16T08:13:20.970Z,57.85
2018-03-16T08:15:48.573Z,57.00
2018-03-16T08:18:16.178Z,57.63
2018-03-16T08:20:43.839Z,58.03
2018-03-16T08:23:11.471Z,58.34
2018-03-16T08:25:39.058Z,58.33
2018-03-16T08:28:06.694Z,58.11
2018-03-16T08:30:34.351Z,56.72
2018-03-16T08:33:01.947Z,55.55
2018-03-16T08:35:29.644Z,56.31
2018-03-16T08:37:57.274Z,57.31
2018-03-16T08:40:24.898Z,56.28
2018-03-16T08:42:52.495Z,55.56
2018-03-16T08:45:20.125Z,54.05
2018-03-16T08:47:47.751Z,55.38
2018-03-16T08:50:15.350Z,54.84
2018-03-16T08:52:43.024Z,54.64
2018-03-16T08:55:10.621Z,55.59
2018-03-16T08:57:38.230Z,56.21
2018-03-16T09:00:05.831Z,56.23
2018-03-16T09:02:33.441Z,55.65
2018-03-16T09:05:01.468Z,54.85
2018-03-16T09:07:29.121Z,53.74
2018-03-16T09:09:56.719Z,52.64
2018-03-16T09:12:24.419Z,51.84
2018-03-16T09:14:52.107Z,51.58
2018-03-16T09:17:19.695Z,53.32
2018-03-16T09:19:47.319Z,51.57
2018-03-16T09:22:14.927Z,51.24
2018-03-16T09:24:42.538Z,51.61
2018-03-16T09:27:10.142Z,51.46
2018-03-16T09:29:37.735Z,51.88
2018-03-16T09:32:05.360Z,49.73
2018-03-16T09:34:33.063Z,49.69
2018-03-16T09:37:00.699Z,48.76
2018-03-16T09:39:28.323Z,48.13
2018-03-16T09:41:55.930Z,48.87
2018-03-16T09:44:23.563Z,49.24
2018-03-16T09:46:51.155Z,47.89
2018-03-16T09:49:18.780Z,48.41
2018-03-16T09:51:46.445Z,48.05
2018-03-16T09:54:14.093Z,49.26
2018-03-16T09:56:41.692Z,48.69
2018-03-16T09:59:09.295Z,49.02
2018-03-16T10:01:36.901Z,48.56
2018-03-16T10:04:04.543Z,49.13
2018-03-16T10:06:32.143Z,49.08
2018-03-16T10:08:59.743Z,49.84
2018-03-16T10:11:27.407Z,48.12
2018-03-16T10:13:55.007Z,47.72
2018-03-16T10:16:22.603Z,48.51
2018-03-16T10:18:50.243Z,49.67
2018-03-16T10:21:17.858Z,51.25
2018-03-16T10:23:45.520Z,49.53
2018-03-16T10:26:13.119Z,49.12
2018-03-16T10:28:40.714Z,50.84
2018-03-16T10:31:08.377Z,52.14
2018-03-16T10:33:35.980Z,50.51
2018-03-16T10:36:03.607Z,50.61
2018-03-16T10:38:31.368Z,51.05
2018-03-16T10:40:58.966Z,50.66
2018-03-16T10:43:26.559Z,50.53
2018-03-16T10:45:54.196Z,51.05
2018-03-16T10:48:21.795Z,51.91
2018-03-16T10:50:49.420Z,52.22
2018-03-16T10:53:17.047Z,52.35
2018-03-16T10:55:44.675Z,50.08
2018-03-16T10:58:12.347Z,49.14
2018-03-16T11:00:45.685Z,49.14
2018-03-16T11:03:15.313Z,49.55
2018-03-16T11:05:48.615Z,48.14
2018-03-16T11:08:21.766Z,48.20
2018-03-16T11:10:49.395Z,47.96
2018-03-16T11:13:17.025Z,46.14
2018-03-16T11:15:44.618Z,46.53
2018-03-16T11:18:12.247Z,47.30
2018-03-16T11:20:39.881Z,47.55
2018-03-16T11:23:07.499Z,48.40
2018-03-16T11:25:35.175Z,47.80
2018-03-16T11:28:02.772Z,47.46
2018-03-16T11:30:30.559Z,48.15
2018-03-16T11:32:58.195Z,47.70
2018-03-16T11:35:25.783Z,46.52
2018-03-16T11:37:53.417Z,46.12
2018-03-16T11:40:21.032Z,45.96
2018-03-16T11:42:48.622Z,46.43
2018-03-16T11:45:16.273Z,49.50
2018-03-16T11:47:43.871Z,48.31
2018-03-16T11:50:11.560Z,47.01
2018-03-16T11:52:39.224Z,46.82
2018-03-16T11:55:06.846Z,45.69
2018-03-16T11:57:34.443Z,45.34
2018-03-16T12:00:02.071Z,46.14
2018-03-16T12:02:29.690Z,45.22
2018-03-16T12:04:57.297Z,45.12
2018-03-16T12:07:24.928Z,44.90
2018-03-16T12:09:52.515Z,46.38
2018-03-16T12:12:20.143Z,47.70
2018-03-16T12:14:47.732Z,46.48
2018-03-16T12:17:15.374Z,47.12
2018-03-16T12:19:43.000Z,46.17
2018-03-16T12:22:13.775Z,47.38
2018-03-16T12:24:41.391Z,47.31
2018-03-16T12:27:09.033Z,47.48
2018-03-16T12:29:36.631Z,47.48
2018-03-16T12:32:04.299Z,47.85
2018-03-16T12:34:31.911Z,47.53
2018-03-16T12:36:59.508Z,46.17
2018-03-16T12:39:27.163Z,46.51
2018-03-16T12:41:54.788Z,45.93
2018-03-16T12:44:22.387Z,46.43
2018-03-16T12:46:50.022Z,47.46
2018-03-16T12:49:17.615Z,47.75
2018-03-16T12:51:45.199Z,47.10
2018-03-16T12:54:12.831Z,45.81
2018-03-16T12:56:40.428Z,46.58
2018-03-16T12:59:11.053Z,48.45
2018-03-16T13:01:38.742Z,48.14
2018-03-16T13:04:06.350Z,46.73
2018-03-16T13:06:33.964Z,45.77
2018-03-16T13:09:01.684Z,45.52
2018-03-16T13:11:29.369Z,46.19
2018-03-16T13:13:57.002Z,45.91
2018-03-16T13:16:24.692Z,45.56
2018-03-16T13:18:52.294Z,46.71
2018-03-16T13:21:19.977Z,47.58
2018-03-16T13:23:47.571Z,47.04
2018-03-16T13:26:15.170Z,46.58
2018-03-16T13:28:45.763Z,46.40
2018-03-16T13:31:13.355Z,46.52
2018-03-16T13:33:40.975Z,45.56
2018-03-16T13:36:08.568Z,45.01
2018-03-16T13:38:36.196Z,46.11
2018-03-16T13:41:03.903Z,45.50
2018-03-16T13:43:31.567Z,46.06
2018-03-16T13:45:59.150Z,46.11
2018-03-16T13:48:26.799Z,46.57
2018-03-16T13:50:54.387Z,46.35
2018-03-16T13:53:21.996Z,47.54
2018-03-16T13:55:49.638Z,47.16
2018-03-16T13:58:17.283Z,46.68
2018-03-16T14:00:44.980Z,47.51
2018-03-16T14:03:12.693Z,47.46
2018-03-16T14:05:40.335Z,47.89
2018-03-16T14:08:07.959Z,48.18
2018-03-16T14:10:35.603Z,48.40
2018-03-16T14:13:03.192Z,48.35
2018-03-16T14:15:30.779Z,48.76
2018-03-16T14:17:58.416Z,47.38
2018-03-16T14:20:26.009Z,46.95
2018-03-16T14:22:53.603Z,47.24
2018-03-16T14:25:21.192Z,47.61
2018-03-16T14:27:48.803Z,47.69
2018-03-16T14:30:16.534Z,47.64
2018-03-16T14:32:44.162Z,47.26
2018-03-16T14:35:11.756Z,46.80
2018-03-16T14:37:39.432Z,47.49
2018-03-16T14:40:07.028Z,48.20
2018-03-16T14:42:34.608Z,48.12
2018-03-16T14:45:02.258Z,48.20
2018-03-16T14:47:29.864Z,47.34
2018-03-16T14:49:57.475Z,47.65
2018-03-16T14:52:25.180Z,47.59
2018-03-16T14:54:52.775Z,48.22
2018-03-16T14:57:20.399Z,48.75
2018-03-16T14:59:48.023Z,49.04
2018-03-16T15:02:15.620Z,47.88
2018-03-16T15:04:43.218Z,47.25
2018-03-16T15:07:10.933Z,47.63
2018-03-16T15:09:38.539Z,48.06
2018-03-16T15:12:06.125Z,47.62
2018-03-16T15:14:33.752Z,47.38
2018-03-16T15:17:01.343Z,47.26
2018-03-16T15:19:28.943Z,48.22
2018-03-16T15:21:56.579Z,46.96
2018-03-16T15:24:24.179Z,47.89
2018-03-16T15:26:51.772Z,47.82
2018-03-16T15:29:19.471Z,47.58
2018-03-16T15:31:47.134Z,48.26
2018-03-16T15:34:14.736Z,47.94
2018-03-16T15:36:42.354Z,48.64
2018-03-16T15:39:09.979Z,48.65
2018-03-16T15:41:37.571Z,47.67
2018-03-16T15:44:05.227Z,48.26
2018-03-16T15:46:32.891Z,48.99
2018-03-16T15:49:00.527Z,49.35
2018-03-16T15:51:28.128Z,49.14
2018-03-16T15:53:55.800Z,49.05
2018-03-16T15:56:23.435Z,48.89
2018-03-16T15:58:51.057Z,48.90
2018-03-16T16:01:18.777Z,49.30
2018-03-16T16:03:46.382Z,49.08
2018-03-16T16:06:13.995Z,48.49
2018-03-16T16:08:41.620Z,48.93
2018-03-16T16:11:09.207Z,48.72
2018-03-16T16:13:36.796Z,49.11
2018-03-16T16:16:04.443Z,49.11
2018-03-16T16:18:32.040Z,49.28
2018-03-16T16:20:59.615Z,49.09
2018-03-16T16:23:27.239Z,49.40
2018-03-16T16:25:54.835Z,49.46
2018-03-16T16:28:22.427Z,49.28
2018-03-16T16:30:50.045Z,48.87
2018-03-16T16:33:17.711Z,49.62
2018-03-16T16:35:45.315Z,49.83
2018-03-16T16:38:12.947Z,49.76
2018-03-16T16:40:40.607Z,49.90
2018-03-16T16:43:08.199Z,50.64
2018-03-16T16:45:35.847Z,51.69
2018-03-16T16:48:03.459Z,52.42
2018-03-16T16:50:31.060Z,52.83
2018-03-16T16:52:58.687Z,53.46
2018-03-16T16:55:26.312Z,53.54
2018-03-16T16:57:53.915Z,52.42
2018-03-16T17:00:21.551Z,53.87
2018-03-16T17:02:49.142Z,54.15
2018-03-16T17:05:16.767Z,54.99
2018-03-16T17:07:44.359Z,54.83
2018-03-16T17:10:11.955Z,55.05
2018-03-16T17:12:39.584Z,55.71
2018-03-16T17:15:07.204Z,55.94
2018-03-16T17:17:34.806Z,55.96
2018-03-16T17:20:02.485Z,55.76
2018-03-16T17:22:30.160Z,55.42
2018-03-16T17:24:57.779Z,54.91
2018-03-16T17:27:25.383Z,54.92
2018-03-16T17:29:52.979Z,54.98
2018-03-16T17:32:24.243Z,55.16
2018-03-16T17:34:48.265Z,54.69
2018-03-16T17:37:15.895Z,53.98
2018-03-16T17:39:43.527Z,53.47
2018-03-16T17:42:11.150Z,53.14
2018-03-16T17:44:38.751Z,53.89
2018-03-16T17:47:06.344Z,53.86
2018-03-16T17:49:34.020Z,54.60
2018-03-16T17:52:01.651Z,54.32
2018-03-16T17:54:29.266Z,53.23
2018-03-16T17:56:56.863Z,52.35
2018-03-16T17:59:24.491Z,53.10
2018-03-16T18:01:52.086Z,53.22
2018-03-16T18:04:19.672Z,53.14
2018-03-16T18:06:47.267Z,52.31
2018-03-16T18:09:14.859Z,56.06
2018-03-16T18:11:42.527Z,56.46
2018-03-16T18:14:10.119Z,57.06
2018-03-16T18:16:37.727Z,56.80
2018-03-16T18:19:05.355Z,55.52
2018-03-16T18:21:33.359Z,56.18
2018-03-16T18:24:00.953Z,55.90
2018-03-16T18:26:28.588Z,56.05
2018-03-16T18:28:56.186Z,56.02
2018-03-16T18:31:23.775Z,56.11
2018-03-16T18:33:51.441Z,56.49
2018-03-16T18:36:19.083Z,57.48
2018-03-16T18:38:46.695Z,57.68
2018-03-16T18:41:14.328Z,58.68
2018-03-16T18:43:41.939Z,58.58
2018-03-16T18:46:09.630Z,56.93
2018-03-16T18:48:37.311Z,56.28
2018-03-16T18:51:04.970Z,57.17
2018-03-16T18:53:32.675Z,57.40
2018-03-16T18:56:00.327Z,58.04
2018-03-16T18:58:27.959Z,58.72
2018-03-16T19:00:55.587Z,58.67
2018-03-16T19:03:23.220Z,58.99
2018-03-16T19:05:50.803Z,58.19
2018-03-16T19:08:18.419Z,58.27
2018-03-16T19:10:46.051Z,59.36
2018-03-16T19:13:13.671Z,60.77
2018-03-16T19:15:41.375Z,61.43
2018-03-16T19:18:08.999Z,62.08
2018-03-16T19:20:36.636Z,61.88
2018-03-16T19:23:04.306Z,61.35
2018-03-16T19:25:31.952Z,61.38
2018-03-16T19:27:59.568Z,62.46
2018-03-16T19:30:27.219Z,62.39
2018-03-16T19:32:54.871Z,63.16
2018-03-16T19:35:22.508Z,63.12
2018-03-16T19:37:50.201Z,63.45
2018-03-16T19:40:18.667Z,62.49
2018-03-16T19:42:46.433Z,62.72
2018-03-16T19:45:14.068Z,62.25
2018-03-16T19:47:41.687Z,62.89
2018-03-16T19:50:09.289Z,62.49
2018-03-16T19:52:36.900Z,63.15
2018-03-16T19:55:04.539Z,62.14
2018-03-16T19:57:32.240Z,62.16
2018-03-16T19:59:59.878Z,64.29
2018-03-16T20:02:27.500Z,64.51
2018-03-16T20:04:55.096Z,65.17
2018-03-16T20:07:22.731Z,65.10
2018-03-16T20:09:50.384Z,65.54
2018-03-16T20:12:18.076Z,64.52
2018-03-16T20:14:45.804Z,65.00
2018-03-16T20:17:13.526Z,65.29
2018-03-16T20:19:41.869Z,65.75
2018-03-16T20:22:09.551Z,66.16
2018-03-16T20:24:37.165Z,66.68
2018-03-16T20:27:04.839Z,66.62
2018-03-16T20:29:32.561Z,66.76
2018-03-16T20:32:00.172Z,66.98
2018-03-16T20:34:27.805Z,68.13
2018-03-16T20:36:55.465Z,68.28
2018-03-16T20:39:23.088Z,67.77
2018-03-16T20:41:50.764Z,67.24
2018-03-16T20:44:18.389Z,67.65
2018-03-16T20:46:46.043Z,67.49
2018-03-16T20:49:13.713Z,68.19
2018-03-16T20:51:41.322Z,68.41
2018-03-16T20:54:09.011Z,68.45
2018-03-16T20:56:36.658Z,68.20
2018-03-16T20:59:04.295Z,67.48
2018-03-16T21:01:31.887Z,67.56
2018-03-16T21:03:59.575Z,68.07
2018-03-16T21:06:27.313Z,68.52
2018-03-16T21:08:54.907Z,68.02
2018-03-16T21:11:22.513Z,67.82
2018-03-16T21:13:50.106Z,68.91
2018-03-16T21:16:17.730Z,69.46
2018-03-16T21:18:45.315Z,69.58
2018-03-16T21:21:12.956Z,68.41
2018-03-16T21:23:41.392Z,68.19
2018-03-16T21:26:08.991Z,69.32
2018-03-16T21:28:36.652Z,69.40
2018-03-16T21:31:04.394Z,68.84
2018-03-16T21:33:31.983Z,68.58
2018-03-16T21:35:59.656Z,69.44
2018-03-16T21:38:27.271Z,69.52
2018-03-16T21:40:54.874Z,69.38
2018-03-16T21:43:22.612Z,67.33
2018-03-16T21:45:50.231Z,67.29
2018-03-16T21:48:17.842Z,67.45
2018-03-16T21:50:45.446Z,68.07
2018-03-16T21:53:13.066Z,67.88
2018-03-16T21:55:40.674Z,67.46
2018-03-16T21:58:08.274Z,68.97
2018-03-16T22:00:35.883Z,68.88
2018-03-16T22:03:03.543Z,68.52
2018-03-16T22:05:31.149Z,68.21
2018-03-16T22:07:58.785Z,68.68
2018-03-16T22:10:26.486Z,68.23
2018-03-16T22:12:54.075Z,67.67
2018-03-16T22:15:21.715Z,68.16
2018-03-16T22:17:49.340Z,69.01
2018-03-16T22:20:16.940Z,69.04
2018-03-16T22:22:44.567Z,69.10
2018-03-16T22:25:12.196Z,69.37
2018-03-16T22:27:40.367Z,69.24
2018-03-16T22:30:08.002Z,69.43
2018-03-16T22:32:35.599Z,70.55
2018-03-16T22:35:03.196Z,70.57
2018-03-16T22:37:30.827Z,69.98
2018-03-16T22:39:58.439Z,69.74
2018-03-16T22:42:26.060Z,69.13
2018-03-16T22:44:53.674Z,69.83
2018-03-16T22:47:21.330Z,69.83
2018-03-16T22:49:48.927Z,70.43
2018-03-16T22:52:16.566Z,69.98
2018-03-16T22:54:44.191Z,70.68
2018-03-16T22:57:11.855Z,70.80
2018-03-16T22:59:39.449Z,70.86
2018-03-16T23:02:07.139Z,71.03
2018-03-16T23:04:34.740Z,71.51
2018-03-16T23:07:02.330Z,71.38
2018-03-16T23:09:29.952Z,71.50
2018-03-16T23:11:57.564Z,70.78
2018-03-16T23:14:25.169Z,70.77
2018-03-16T23:16:52.844Z,70.80
2018-03-16T23:19:20.471Z,70.74
2018-03-16T23:21:48.063Z,70.33
2018-03-16T23:24:15.782Z,70.39
2018-03-16T23:26:43.380Z,69.37
2018-03-16T23:29:10.965Z,68.95
2018-03-16T23:31:38.572Z,68.85
2018-03-16T23:34:06.183Z,68.54
2018-03-16T23:36:33.853Z,69.01
2018-03-16T23:39:01.414Z,69.38
2018-03-16T23:41:31.493Z,70.35
2018-03-16T23:43:59.115Z,70.55
2018-03-16T23:46:26.695Z,71.32
2018-03-16T23:48:54.315Z,71.16
2018-03-16T23:51:21.906Z,70.38
2018-03-16T23:53:49.572Z,71.22
2018-03-16T23:56:17.161Z,70.87
2018-03-16T23:58:44.823Z,70.19
